Time;durP1;ratioP1;P1;durP2;ratioP2;P2;SDS_P1;SDS_P2;PMS_P1;PMS_P2;Temp;Humidity;BMP_temperature;BMP_pressure;BME280_temperature;BME280_humidity;BME280_pressure;Samples;Min_cycle;Max_cycle;Signal;HPM_P1;HPM_P2
2024/01/15 00:00:43;;;;;;;11.40;3.28;;;;;;;;;;5007657;23;20047;-56
2024/01/15 00:03:09;;;;;;;11.50;3.50;;;;;;;;;;4992885;28;20101;-57
2024/01/15 00:05:34;;;;;;;10.25;3.50;;;;;;;;;;4993611;28;20138;-57
2024/01/15 00:07:59;;;;;;;9.73;3.45;;;;;;;;;;4993816;28;20132;-56
2024/01/15 00:10:25;;;;;;;10.55;3.63;;;;;;;;;;4993604;28;20052;-57
2024/01/15 00:12:50;;;;;;;11.70;4.17;;;;;;;;;;4993268;28;20378;-56
2024/01/15 00:15:15;;;;;;;9.23;3.93;;;;;;;;;;4992492;28;20117;-57
2024/01/15 00:17:40;;;;;;;11.68;4.03;;;;;;;;;;4993474;28;20081;-56
2024/01/15 00:20:06;;;;;;;11.70;4.20;;;;;;;;;;4993052;28;20087;-56
2024/01/15 00:22:31;;;;;;;9.77;3.67;;;;;;;;;;4992817;28;20015;-56
2024/01/15 00:24:57;;;;;;;9.90;3.60;;;;;;;;;;4993534;28;20150;-56
2024/01/15 00:27:22;;;;;;;12.43;4.50;;;;;;;;;;4992825;28;20509;-57
2024/01/15 00:29:50;;;;;;;10.13;3.75;;;;;;;;;;4994395;28;20026;-56
2024/01/15 00:32:15;;;;;;;12.25;4.25;;;;;;;;;;5000602;28;20080;-56
2024/01/15 00:34:41;;;;;;;12.23;4.47;;;;;;;;;;5005791;28;20038;-57
2024/01/15 00:37:06;;;;;;;11.32;4.20;;;;;;;;;;5005974;28;20040;-57
2024/01/15 00:39:32;;;;;;;11.13;4.03;;;;;;;;;;5009555;28;20026;-57
2024/01/15 00:41:57;;;;;;;11.68;4.80;;;;;;;;;;5001213;28;20122;-56
2024/01/15 00:44:22;;;;;;;10.90;4.28;;;;;;;;;;4990741;28;20027;-56
2024/01/15 00:46:47;;;;;;;11.97;4.00;;;;;;;;;;4985562;28;20085;-56
2024/01/15 00:49:13;;;;;;;10.57;3.83;;;;;;;;;;4984516;28;20044;-56
2024/01/15 00:51:38;;;;;;;10.88;4.60;;;;;;;;;;4992148;28;20054;-57
2024/01/15 00:54:03;;;;;;;15.67;5.10;;;;;;;;;;4992107;28;20026;-55
2024/01/15 00:56:28;;;;;;;11.77;4.50;;;;;;;;;;4990072;28;20029;-55
2024/01/15 00:58:53;;;;;;;11.00;4.50;;;;;;;;;;4989604;28;20502;-56
2024/01/15 01:01:19;;;;;;;11.07;4.00;;;;;;;;;;4990975;28;20121;-55
2024/01/15 01:03:44;;;;;;;10.60;4.07;;;;;;;;;;4991862;28;20042;-56
2024/01/15 01:06:09;;;;;;;11.20;3.90;;;;;;;;;;4991813;28;20543;-58
2024/01/15 01:08:34;;;;;;;9.02;3.75;;;;;;;;;;4992141;28;20037;-57
2024/01/15 01:10:59;;;;;;;11.90;4.03;;;;;;;;;;4988963;28;20783;-56
2024/01/15 01:13:24;;;;;;;13.02;5.43;;;;;;;;;;4991856;28;20030;-57
2024/01/15 01:15:49;;;;;;;12.77;4.97;;;;;;;;;;4976453;28;20117;-56
2024/01/15 01:18:15;;;;;;;13.95;4.65;;;;;;;;;;4989662;28;20026;-56
2024/01/15 01:20:40;;;;;;;13.52;4.97;;;;;;;;;;4991660;28;20101;-58
2024/01/15 01:23:05;;;;;;;10.20;4.53;;;;;;;;;;4991303;28;20031;-58
2024/01/15 01:25:30;;;;;;;13.00;5.15;;;;;;;;;;4990745;28;20030;-56
2024/01/15 01:27:56;;;;;;;10.65;4.97;;;;;;;;;;4982900;28;20045;-56
2024/01/15 01:30:21;;;;;;;11.48;4.97;;;;;;;;;;4978366;28;20018;-57
2024/01/15 01:32:47;;;;;;;10.80;4.68;;;;;;;;;;4983667;28;20030;-57
2024/01/15 01:35:12;;;;;;;12.98;4.65;;;;;;;;;;4986000;28;20399;-57
2024/01/15 01:37:37;;;;;;;16.20;5.25;;;;;;;;;;4989661;28;20068;-57
2024/01/15 01:40:03;;;;;;;13.98;4.97;;;;;;;;;;4990039;28;20034;-56
2024/01/15 01:42:28;;;;;;;10.60;4.63;;;;;;;;;;4982854;28;20026;-57
2024/01/15 01:44:53;;;;;;;11.32;5.20;;;;;;;;;;4991526;28;20033;-57
2024/01/15 01:47:18;;;;;;;14.27;5.07;;;;;;;;;;4977794;28;20041;-56
2024/01/15 01:49:43;;;;;;;11.93;4.63;;;;;;;;;;4991256;28;20061;-58
2024/01/15 01:52:09;;;;;;;11.67;4.13;;;;;;;;;;4990982;28;20030;-56
2024/01/15 01:54:35;;;;;;;10.70;3.95;;;;;;;;;;4989867;28;20026;-56
2024/01/15 01:57:02;;;;;;;10.65;4.10;;;;;;;;;;4983357;28;20037;-57
2024/01/15 01:59:27;;;;;;;10.88;4.10;;;;;;;;;;4992838;28;20026;-57
2024/01/15 02:01:53;;;;;;;11.43;4.72;;;;;;;;;;4988947;28;20475;-57
2024/01/15 02:04:19;;;;;;;11.02;4.40;;;;;;;;;;4991784;28;20509;-57
2024/01/15 02:06:44;;;;;;;11.83;4.50;;;;;;;;;;4995110;28;20070;-57
2024/01/15 02:09:09;;;;;;;10.27;4.28;;;;;;;;;;4992131;28;20026;-56
2024/01/15 02:11:35;;;;;;;14.02;4.95;;;;;;;;;;4994658;28;20049;-57
2024/01/15 02:14:01;;;;;;;13.93;4.47;;;;;;;;;;4991179;28;20034;-56
2024/01/15 02:16:26;;;;;;;9.82;3.92;;;;;;;;;;4994137;28;20113;-56
2024/01/15 02:18:51;;;;;;;12.93;4.63;;;;;;;;;;4985297;28;20489;-56
2024/01/15 02:21:16;;;;;;;12.88;4.50;;;;;;;;;;4994871;28;20173;-56
2024/01/15 02:23:41;;;;;;;12.40;4.88;;;;;;;;;;4994867;28;20039;-57
2024/01/15 02:26:08;;;;;;;12.73;4.50;;;;;;;;;;4995183;28;20050;-56
2024/01/15 02:28:33;;;;;;;13.30;5.00;;;;;;;;;;4992119;28;20018;-56
2024/01/15 02:30:58;;;;;;;14.40;5.22;;;;;;;;;;4997218;28;20040;-57
2024/01/15 02:33:24;;;;;;;13.15;4.20;;;;;;;;;;5003679;28;20085;-56
2024/01/15 02:35:51;;;;;;;12.48;4.55;;;;;;;;;;5000148;28;20390;-57
2024/01/15 02:38:17;;;;;;;11.52;4.32;;;;;;;;;;5005084;28;20023;-57
2024/01/15 02:40:43;;;;;;;12.60;4.67;;;;;;;;;;4998904;28;20017;-57
2024/01/15 02:43:08;;;;;;;11.05;4.50;;;;;;;;;;5003799;28;20014;-56
2024/01/15 02:45:33;;;;;;;11.70;4.17;;;;;;;;;;5015842;28;20070;-56
2024/01/15 02:47:58;;;;;;;12.77;4.73;;;;;;;;;;4994469;28;20145;-57
2024/01/15 02:50:23;;;;;;;13.77;4.78;;;;;;;;;;4993634;28;20022;-56
2024/01/15 02:52:49;;;;;;;12.07;4.57;;;;;;;;;;4987047;28;20085;-57
2024/01/15 02:55:14;;;;;;;11.43;4.83;;;;;;;;;;4989759;28;20033;-56
2024/01/15 02:57:39;;;;;;;11.00;4.47;;;;;;;;;;4994393;28;20034;-56
2024/01/15 03:00:04;;;;;;;11.65;4.57;;;;;;;;;;4993513;28;20026;-56
2024/01/15 03:02:31;;;;;;;14.98;5.07;;;;;;;;;;4994138;28;20406;-57
2024/01/15 03:04:56;;;;;;;14.00;4.88;;;;;;;;;;4993244;28;20038;-56
2024/01/15 03:07:21;;;;;;;10.87;4.77;;;;;;;;;;4991425;28;20031;-57
2024/01/15 03:09:47;;;;;;;12.33;4.67;;;;;;;;;;4991209;28;20426;-56
2024/01/15 03:12:12;;;;;;;13.00;4.53;;;;;;;;;;4995603;28;20494;-56
2024/01/15 03:14:37;;;;;;;11.33;4.00;;;;;;;;;;4996762;28;20065;-58
2024/01/15 03:17:02;;;;;;;12.52;4.60;;;;;;;;;;4999902;28;20034;-56
2024/01/15 03:19:27;;;;;;;11.00;4.40;;;;;;;;;;5004361;28;20025;-57
2024/01/15 03:21:53;;;;;;;12.55;4.32;;;;;;;;;;4998771;28;20018;-56
2024/01/15 03:24:18;;;;;;;13.05;4.63;;;;;;;;;;5003596;28;20386;-57
2024/01/15 03:26:43;;;;;;;12.43;4.75;;;;;;;;;;4989408;28;20066;-56
2024/01/15 03:29:08;;;;;;;12.30;4.90;;;;;;;;;;4991046;28;20077;-57
2024/01/15 03:31:34;;;;;;;13.70;4.45;;;;;;;;;;4993030;28;20512;-57
2024/01/15 03:33:59;;;;;;;14.80;5.20;;;;;;;;;;4993934;28;20537;-57
2024/01/15 03:36:24;;;;;;;12.75;5.13;;;;;;;;;;4995406;28;20418;-56
2024/01/15 03:38:49;;;;;;;13.48;4.85;;;;;;;;;;5001878;28;20688;-58
2024/01/15 03:41:14;;;;;;;13.48;4.90;;;;;;;;;;4995751;28;20030;-57
2024/01/15 03:43:39;;;;;;;12.03;5.30;;;;;;;;;;4986581;28;20030;-58
2024/01/15 03:46:05;;;;;;;12.53;5.00;;;;;;;;;;4990196;28;20031;-58
2024/01/15 03:48:30;;;;;;;13.30;5.00;;;;;;;;;;4994569;28;20022;-56
2024/01/15 03:50:55;;;;;;;12.17;4.90;;;;;;;;;;4998146;28;20029;-56
2024/01/15 03:53:20;;;;;;;15.93;5.63;;;;;;;;;;4999895;28;20041;-56
2024/01/15 03:55:45;;;;;;;12.93;5.77;;;;;;;;;;4997364;28;20411;-58
2024/01/15 03:58:11;;;;;;;13.88;5.25;;;;;;;;;;4997568;28;20022;-58
2024/01/15 04:00:36;;;;;;;13.05;6.13;;;;;;;;;;4997682;28;20474;-56
2024/01/15 04:03:01;;;;;;;14.98;5.85;;;;;;;;;;4995919;28;20022;-58
2024/01/15 04:05:27;;;;;;;15.43;4.95;;;;;;;;;;4995698;28;20018;-56
2024/01/15 04:07:52;;;;;;;15.73;5.55;;;;;;;;;;4995271;28;20026;-55
2024/01/15 04:10:17;;;;;;;16.00;5.67;;;;;;;;;;4997406;28;20030;-55
2024/01/15 04:12:46;;;;;;;12.03;4.60;;;;;;;;;;4989340;28;20479;-57
2024/01/15 04:15:12;;;;;;;15.10;5.50;;;;;;;;;;4991737;28;20026;-58
2024/01/15 04:17:37;;;;;;;14.60;5.75;;;;;;;;;;4997480;28;20382;-57
2024/01/15 04:20:03;;;;;;;14.47;5.33;;;;;;;;;;4996416;28;20030;-56
2024/01/15 04:22:28;;;;;;;16.30;6.28;;;;;;;;;;4995162;28;20447;-57
2024/01/15 04:24:53;;;;;;;14.53;5.60;;;;;;;;;;4996073;28;20018;-57
2024/01/15 04:27:18;;;;;;;14.75;5.50;;;;;;;;;;4995691;28;20133;-57
2024/01/15 04:29:44;;;;;;;13.67;5.30;;;;;;;;;;4996598;28;20410;-57
2024/01/15 04:32:09;;;;;;;15.90;5.75;;;;;;;;;;4997127;28;20099;-56
2024/01/15 04:34:34;;;;;;;14.97;4.93;;;;;;;;;;4998080;28;20105;-56
2024/01/15 04:37:00;;;;;;;13.88;4.95;;;;;;;;;;4999980;28;20044;-56
2024/01/15 04:39:25;;;;;;;13.40;4.63;;;;;;;;;;5014125;28;20041;-56
2024/01/15 04:41:50;;;;;;;14.05;4.82;;;;;;;;;;5003157;28;20026;-56
2024/01/15 04:44:15;;;;;;;15.97;5.37;;;;;;;;;;4999264;28;20015;-56
2024/01/15 04:46:40;;;;;;;14.07;4.87;;;;;;;;;;4998135;28;20022;-57
2024/01/15 04:49:05;;;;;;;14.00;5.15;;;;;;;;;;5002359;28;20018;-57
2024/01/15 04:51:30;;;;;;;15.70;5.00;;;;;;;;;;5002781;28;20234;-56
2024/01/15 04:53:56;;;;;;;15.10;5.00;;;;;;;;;;5003063;28;20029;-62
2024/01/15 04:56:21;;;;;;;16.33;5.15;;;;;;;;;;5003956;28;20030;-56
2024/01/15 04:58:46;;;;;;;14.50;5.33;;;;;;;;;;5005711;28;20029;-57
2024/01/15 05:01:11;;;;;;;15.63;5.50;;;;;;;;;;5001069;28;20036;-56
2024/01/15 05:03:37;;;;;;;12.32;4.70;;;;;;;;;;4990795;28;20022;-57
2024/01/15 05:06:02;;;;;;;14.30;5.40;;;;;;;;;;5003494;28;20061;-56
2024/01/15 05:08:27;;;;;;;12.65;4.97;;;;;;;;;;5002331;28;20018;-56
2024/01/15 05:10:54;;;;;;;12.50;4.65;;;;;;;;;;4996909;28;20022;-58
2024/01/15 05:13:19;;;;;;;16.13;5.32;;;;;;;;;;5011923;28;20084;-58
2024/01/15 05:15:44;;;;;;;16.67;5.55;;;;;;;;;;4995078;28;20034;-57
2024/01/15 05:18:09;;;;;;;13.93;4.88;;;;;;;;;;4991422;28;20034;-57
2024/01/15 05:20:34;;;;;;;15.47;5.23;;;;;;;;;;4988035;28;20065;-58
2024/01/15 05:23:00;;;;;;;13.93;5.33;;;;;;;;;;4989590;28;20026;-56
2024/01/15 05:25:25;;;;;;;14.27;5.40;;;;;;;;;;4992059;28;20014;-56
2024/01/15 05:27:50;;;;;;;14.63;4.80;;;;;;;;;;4992324;28;20031;-57
2024/01/15 05:30:16;;;;;;;14.13;4.78;;;;;;;;;;4991284;28;20030;-58
2024/01/15 05:32:41;;;;;;;15.10;4.85;;;;;;;;;;4995702;28;20019;-57
2024/01/15 05:35:06;;;;;;;16.75;5.55;;;;;;;;;;4990533;28;20133;-56
2024/01/15 05:37:32;;;;;;;15.70;5.13;;;;;;;;;;4983984;28;20014;-57
2024/01/15 05:39:57;;;;;;;14.10;5.20;;;;;;;;;;4988801;28;20592;-58
2024/01/15 05:42:22;;;;;;;16.67;5.73;;;;;;;;;;4981610;28;20027;-58
2024/01/15 05:44:47;;;;;;;13.82;4.53;;;;;;;;;;4988437;28;20048;-57
2024/01/15 05:47:12;;;;;;;15.23;5.05;;;;;;;;;;4988242;28;20502;-56
2024/01/15 05:49:37;;;;;;;15.65;5.47;;;;;;;;;;4988585;28;20029;-58
2024/01/15 05:52:03;;;;;;;13.80;4.63;;;;;;;;;;4988540;28;20041;-58
2024/01/15 05:54:28;;;;;;;15.10;5.03;;;;;;;;;;4987948;28;20023;-59
2024/01/15 05:56:53;;;;;;;13.43;4.95;;;;;;;;;;4985397;28;20026;-57
2024/01/15 05:59:18;;;;;;;13.52;4.72;;;;;;;;;;4998572;28;20033;-57
2024/01/15 06:01:43;;;;;;;17.77;5.43;;;;;;;;;;4988559;28;20034;-57
2024/01/15 06:04:09;;;;;;;15.27;5.30;;;;;;;;;;4988480;28;20371;-57
2024/01/15 06:06:34;;;;;;;13.57;5.13;;;;;;;;;;4988188;28;20043;-57
2024/01/15 06:09:05;;;;;;;14.63;5.03;;;;;;;;;;4988442;28;20046;-57
2024/01/15 06:11:30;;;;;;;15.48;5.15;;;;;;;;;;4986092;28;20019;-59
2024/01/15 06:13:56;;;;;;;15.30;5.45;;;;;;;;;;4991957;28;20485;-57
2024/01/15 06:16:21;;;;;;;14.20;5.13;;;;;;;;;;4992523;28;20018;-58
2024/01/15 06:18:46;;;;;;;14.63;4.82;;;;;;;;;;4992475;28;20483;-57
2024/01/15 06:21:14;;;;;;;14.20;4.85;;;;;;;;;;4991702;28;20031;-58
2024/01/15 06:23:39;;;;;;;15.40;4.95;;;;;;;;;;4991457;28;20045;-56
2024/01/15 06:26:04;;;;;;;17.13;5.68;;;;;;;;;;4991405;28;20105;-59
2024/01/15 06:28:30;;;;;;;15.55;4.72;;;;;;;;;;4989819;28;20470;-57
2024/01/15 06:30:55;;;;;;;15.73;4.97;;;;;;;;;;4991139;28;20105;-57
2024/01/15 06:33:20;;;;;;;16.40;4.50;;;;;;;;;;5001221;28;20019;-57
2024/01/15 06:35:45;;;;;;;15.00;4.95;;;;;;;;;;5006202;28;20089;-58
2024/01/15 06:38:10;;;;;;;11.60;4.43;;;;;;;;;;5001488;28;20022;-57
2024/01/15 06:40:37;;;;;;;13.63;4.57;;;;;;;;;;5005533;28;20026;-57
2024/01/15 06:43:02;;;;;;;13.02;4.40;;;;;;;;;;4994977;28;20037;-57
2024/01/15 06:45:27;;;;;;;13.68;4.90;;;;;;;;;;4990997;28;20027;-57
2024/01/15 06:47:52;;;;;;;12.70;4.13;;;;;;;;;;4995620;28;20414;-57
2024/01/15 06:50:18;;;;;;;12.53;4.33;;;;;;;;;;4993676;28;20026;-56
2024/01/15 06:52:43;;;;;;;12.10;4.20;;;;;;;;;;4994606;28;20467;-56
2024/01/15 06:55:08;;;;;;;11.00;4.13;;;;;;;;;;4992403;28;20089;-56
2024/01/15 06:57:33;;;;;;;11.80;4.07;;;;;;;;;;4994208;28;20026;-56
2024/01/15 06:59:58;;;;;;;13.25;4.25;;;;;;;;;;4993358;28;20038;-56
2024/01/15 07:02:23;;;;;;;10.33;4.00;;;;;;;;;;4987580;28;20044;-57
2024/01/15 07:04:49;;;;;;;9.68;3.90;;;;;;;;;;4994773;28;20030;-56
2024/01/15 07:07:14;;;;;;;11.87;4.37;;;;;;;;;;4994667;28;20501;-57
2024/01/15 07:09:39;;;;;;;11.40;3.90;;;;;;;;;;4994210;28;20089;-57
2024/01/15 07:12:04;;;;;;;11.52;4.40;;;;;;;;;;4990175;28;20029;-56
2024/01/15 07:14:29;;;;;;;11.43;4.07;;;;;;;;;;4993997;28;20440;-56
2024/01/15 07:16:54;;;;;;;10.57;3.53;;;;;;;;;;4990413;28;20018;-57
2024/01/15 07:19:19;;;;;;;10.90;3.53;;;;;;;;;;4994781;28;20030;-56
2024/01/15 07:21:45;;;;;;;12.13;3.78;;;;;;;;;;4993897;28;20057;-56
2024/01/15 07:24:10;;;;;;;10.13;3.70;;;;;;;;;;4995474;28;20050;-58
2024/01/15 07:26:35;;;;;;;14.05;4.03;;;;;;;;;;4994936;28;20041;-56
2024/01/15 07:29:00;;;;;;;14.07;4.43;;;;;;;;;;4990301;28;20144;-56
2024/01/15 07:31:26;;;;;;;10.05;3.40;;;;;;;;;;4990848;28;20101;-57
2024/01/15 07:33:51;;;;;;;10.23;3.28;;;;;;;;;;4993699;28;20022;-56
2024/01/15 07:36:16;;;;;;;14.82;4.07;;;;;;;;;;4994483;28;20490;-56
2024/01/15 07:38:42;;;;;;;9.75;3.70;;;;;;;;;;4994898;28;20045;-56
2024/01/15 07:41:08;;;;;;;10.52;3.55;;;;;;;;;;4993661;28;20033;-57
2024/01/15 07:43:33;;;;;;;10.27;3.30;;;;;;;;;;4994340;28;20022;-57
2024/01/15 07:45:58;;;;;;;10.32;3.50;;;;;;;;;;4996272;28;20022;-56
2024/01/15 07:48:23;;;;;;;13.50;4.00;;;;;;;;;;4994900;28;20033;-56
2024/01/15 07:50:48;;;;;;;10.55;3.67;;;;;;;;;;4988825;28;20031;-56
2024/01/15 07:53:14;;;;;;;12.23;3.55;;;;;;;;;;4993165;28;20105;-57
2024/01/15 07:55:39;;;;;;;11.37;3.83;;;;;;;;;;4985124;28;20022;-56
2024/01/15 07:58:04;;;;;;;9.15;3.58;;;;;;;;;;4992574;28;20026;-55
2024/01/15 08:00:29;;;;;;;10.07;3.90;;;;;;;;;;4992210;28;20340;-56
2024/01/15 08:02:54;;;;;;;11.82;4.13;;;;;;;;;;4992867;28;20105;-57
2024/01/15 08:05:20;;;;;;;16.70;3.63;;;;;;;;;;4993327;28;20386;-55
2024/01/15 08:07:45;;;;;;;11.82;3.70;;;;;;;;;;4993413;28;20034;-56
2024/01/15 08:10:11;;;;;;;10.87;3.30;;;;;;;;;;4992341;28;20022;-57
2024/01/15 08:12:36;;;;;;;11.05;4.18;;;;;;;;;;4992841;28;20037;-58
2024/01/15 08:15:02;;;;;;;9.90;3.42;;;;;;;;;;4993341;28;20022;-58
2024/01/15 08:17:28;;;;;;;;;;;;;;;;;;4993999;28;20038;-56
2024/01/15 08:19:53;;;;;;;11.50;3.20;;;;;;;;;;4993704;28;19928;-56
2024/01/15 08:22:19;;;;;;;11.13;3.30;;;;;;;;;;4992893;28;20021;-57
2024/01/15 08:24:44;;;;;;;13.13;3.60;;;;;;;;;;4994358;28;20022;-56
2024/01/15 08:27:09;;;;;;;8.70;3.13;;;;;;;;;;4994468;28;20026;-57
2024/01/15 08:29:35;;;;;;;12.10;3.57;;;;;;;;;;4986469;28;21880;-56
2024/01/15 08:32:00;;;;;;;11.90;3.47;;;;;;;;;;4989397;28;20136;-56
2024/01/15 08:34:25;;;;;;;10.07;2.90;;;;;;;;;;4993526;28;20426;-57
2024/01/15 08:36:51;;;;;;;10.65;3.67;;;;;;;;;;4997059;28;20044;-56
2024/01/15 08:39:16;;;;;;;10.20;3.30;;;;;;;;;;4998527;28;20018;-57
2024/01/15 08:41:41;;;;;;;9.17;3.53;;;;;;;;;;5003176;28;20473;-57
2024/01/15 08:44:06;;;;;;;11.07;3.27;;;;;;;;;;5001432;28;20368;-57
2024/01/15 08:46:31;;;;;;;8.80;3.20;;;;;;;;;;5000063;28;20024;-56
2024/01/15 08:48:57;;;;;;;8.27;3.00;;;;;;;;;;4998268;28;20022;-57
2024/01/15 08:51:22;;;;;;;10.10;3.57;;;;;;;;;;5004791;28;20018;-57
2024/01/15 08:53:47;;;;;;;11.48;3.30;;;;;;;;;;5008093;28;20073;-57
2024/01/15 08:56:12;;;;;;;8.10;3.20;;;;;;;;;;5008033;28;20019;-57
2024/01/15 08:58:37;;;;;;;11.23;3.37;;;;;;;;;;4997973;28;20022;-56
2024/01/15 09:01:03;;;;;;;11.55;3.70;;;;;;;;;;4998535;28;20116;-56
2024/01/15 09:03:28;;;;;;;8.75;3.35;;;;;;;;;;4996916;28;20379;-57
2024/01/15 09:05:54;;;;;;;9.70;3.43;;;;;;;;;;4996242;28;20018;-56
2024/01/15 09:08:19;;;;;;;8.55;2.80;;;;;;;;;;4996962;28;20030;-57
2024/01/15 09:10:45;;;;;;;11.27;3.60;;;;;;;;;;4994440;28;20048;-56
2024/01/15 09:13:10;;;;;;;9.20;3.05;;;;;;;;;;4983651;28;20810;-56
2024/01/15 09:15:37;;;;;;;9.95;3.42;;;;;;;;;;4973221;28;20023;-56
2024/01/15 09:18:02;;;;;;;7.43;2.67;;;;;;;;;;4992584;28;20030;-56
2024/01/15 09:20:27;;;;;;;8.27;2.50;;;;;;;;;;4993025;28;20101;-57
2024/01/15 09:22:53;;;;;;;10.47;2.80;;;;;;;;;;4983127;28;20070;-57
2024/01/15 09:25:19;;;;;;;11.45;3.47;;;;;;;;;;4973528;28;20038;-57
2024/01/15 09:27:44;;;;;;;7.47;2.50;;;;;;;;;;4974269;28;20487;-56
2024/01/15 09:30:09;;;;;;;9.68;2.95;;;;;;;;;;4985187;28;20106;-56
2024/01/15 09:32:35;;;;;;;7.82;2.88;;;;;;;;;;5005811;28;20387;-56
2024/01/15 09:35:00;;;;;;;9.25;2.83;;;;;;;;;;5007115;28;20030;-56
2024/01/15 09:37:25;;;;;;;8.80;2.58;;;;;;;;;;5006751;28;20022;-57
2024/01/15 09:39:50;;;;;;;16.90;3.13;;;;;;;;;;5005522;28;20390;-56
2024/01/15 09:42:15;;;;;;;11.43;2.80;;;;;;;;;;5006888;28;20023;-56
2024/01/15 09:44:41;;;;;;;9.47;3.23;;;;;;;;;;5004001;28;20033;-58
2024/01/15 09:47:06;;;;;;;10.27;3.20;;;;;;;;;;5002372;28;20037;-57
2024/01/15 09:49:31;;;;;;;9.57;2.92;;;;;;;;;;4998768;28;20019;-56
2024/01/15 09:51:57;;;;;;;7.57;2.47;;;;;;;;;;4997012;28;20034;-57
2024/01/15 09:54:23;;;;;;;8.30;2.88;;;;;;;;;;5007117;28;20384;-56
2024/01/15 09:56:48;;;;;;;7.18;2.25;;;;;;;;;;5001385;28;20114;-56
2024/01/15 09:59:18;;;;;;;11.05;2.75;;;;;;;;;;4999080;28;20030;-56
2024/01/15 10:01:44;;;;;;;9.80;2.72;;;;;;;;;;4985341;28;20090;-57
2024/01/15 10:04:09;;;;;;;9.80;2.75;;;;;;;;;;4989473;28;20049;-57
2024/01/15 10:06:35;;;;;;;8.30;2.83;;;;;;;;;;4994328;28;20076;-57
2024/01/15 10:09:01;;;;;;;9.93;2.70;;;;;;;;;;4977749;28;20116;-57
2024/01/15 10:11:26;;;;;;;8.57;2.30;;;;;;;;;;4973814;28;20022;-56
2024/01/15 10:13:52;;;;;;;9.10;2.58;;;;;;;;;;4974552;28;20027;-56
2024/01/15 10:16:18;;;;;;;12.65;3.10;;;;;;;;;;4977826;28;20105;-56
2024/01/15 10:18:43;;;;;;;8.35;2.38;;;;;;;;;;4995322;28;20022;-58
2024/01/15 10:21:08;;;;;;;6.47;2.30;;;;;;;;;;5001950;28;20026;-55
2024/01/15 10:23:34;;;;;;;8.02;2.90;;;;;;;;;;5000130;28;20022;-57
2024/01/15 10:26:00;;;;;;;8.53;2.60;;;;;;;;;;5000656;28;20410;-57
2024/01/15 10:28:30;;;;;;;6.28;2.22;;;;;;;;;;5001841;28;20034;-57
2024/01/15 10:30:56;;;;;;;7.03;2.58;;;;;;;;;;4999314;28;20130;-57
2024/01/15 10:33:25;;;;;;;7.70;2.38;;;;;;;;;;5003299;28;20490;-58
2024/01/15 10:35:52;;;;;;;11.10;2.85;;;;;;;;;;4999360;28;20029;-56
2024/01/15 10:38:21;;;;;;;8.98;2.53;;;;;;;;;;4998159;28;20116;-56
2024/01/15 10:40:47;;;;;;;9.88;2.80;;;;;;;;;;5002146;28;20022;-57
2024/01/15 10:43:12;;;;;;;7.25;2.28;;;;;;;;;;5001218;28;20073;-57
2024/01/15 10:45:37;;;;;;;7.25;2.28;;;;;;;;;;5000568;28;20037;-56
2024/01/15 10:48:03;;;;;;;8.82;2.63;;;;;;;;;;5001785;28;20479;-58
2024/01/15 10:50:29;;;;;;;8.57;2.33;;;;;;;;;;5000476;28;20172;-56
2024/01/15 10:52:55;;;;;;;7.88;2.50;;;;;;;;;;5002520;28;20102;-56
2024/01/15 10:55:20;;;;;;;6.85;2.22;;;;;;;;;;5000288;28;20059;-58
2024/01/15 10:57:47;;;;;;;10.10;2.60;;;;;;;;;;5001502;28;20018;-56
2024/01/15 11:00:14;;;;;;;;;;;;;;;;;;5003645;28;20518;-57
2024/01/15 11:02:40;;;;;;;7.32;2.35;;;;;;;;;;5009828;28;19929;-57
2024/01/15 11:05:05;;;;;;;7.88;2.58;;;;;;;;;;4997612;28;20027;-56
2024/01/15 11:07:30;;;;;;;9.20;2.30;;;;;;;;;;4994990;28;20486;-56
2024/01/15 11:09:58;;;;;;;8.13;2.25;;;;;;;;;;4995310;28;20502;-56
2024/01/15 11:12:23;;;;;;;8.38;2.80;;;;;;;;;;4994944;28;20021;-56
2024/01/15 11:14:49;;;;;;;11.37;2.53;;;;;;;;;;4994316;28;20018;-55
2024/01/15 11:17:15;;;;;;;9.43;2.72;;;;;;;;;;4994715;28;20018;-56
2024/01/15 11:19:47;;;;;;;10.95;2.75;;;;;;;;;;4994871;28;20026;-57
2024/01/15 11:22:47;;;;;;;9.80;2.80;;;;;;;;;;4994472;28;20077;-57
2024/01/15 11:25:13;;;;;;;7.75;2.53;;;;;;;;;;4990020;28;20026;-57
2024/01/15 11:27:42;;;;;;;8.95;2.58;;;;;;;;;;4975053;28;20510;-56
2024/01/15 11:30:08;;;;;;;8.68;2.70;;;;;;;;;;4993631;28;20032;-57
2024/01/15 11:32:35;;;;;;;9.52;2.78;;;;;;;;;;4992823;28;20026;-56
2024/01/15 11:35:02;;;;;;;9.65;3.13;;;;;;;;;;4992290;28;20943;-57
2024/01/15 11:37:27;;;;;;;8.68;2.92;;;;;;;;;;4994670;28;20080;-57
2024/01/15 11:40:00;;;;;;;8.60;2.60;;;;;;;;;;4994852;28;20030;-56
2024/01/15 11:42:25;;;;;;;;;;;;;;;;;;4989104;28;20022;-56
2024/01/15 11:44:50;;;;;;;8.57;2.75;;;;;;;;;;4994401;28;19993;-55
2024/01/15 11:47:18;;;;;;;7.57;2.80;;;;;;;;;;4992765;28;20398;-56
2024/01/15 11:49:43;;;;;;;7.78;2.60;;;;;;;;;;4994363;28;20022;-56
2024/01/15 11:52:11;;;;;;;5.90;2.17;;;;;;;;;;4993938;28;20019;-56
2024/01/15 11:54:41;;;;;;;9.40;2.75;;;;;;;;;;4993680;28;20042;-56
2024/01/15 11:57:13;;;;;;;6.00;2.38;;;;;;;;;;4992794;28;20038;-58
2024/01/15 11:59:39;;;;;;;8.00;2.70;;;;;;;;;;4993737;28;20038;-58
2024/01/15 12:02:04;;;;;;;8.80;2.87;;;;;;;;;;4994034;28;20018;-57
2024/01/15 12:04:29;;;;;;;6.88;2.35;;;;;;;;;;4993522;28;20021;-57
2024/01/15 12:06:54;;;;;;;10.18;2.90;;;;;;;;;;4993522;28;20084;-57
2024/01/15 12:09:19;;;;;;;8.23;2.50;;;;;;;;;;4993917;28;20026;-57
2024/01/15 12:11:50;;;;;;;8.30;2.50;;;;;;;;;;4993664;28;20387;-58
2024/01/15 12:14:16;;;;;;;9.90;2.88;;;;;;;;;;4995868;28;20068;-57
2024/01/15 12:16:41;;;;;;;8.25;2.88;;;;;;;;;;4989875;28;20109;-57
2024/01/15 12:19:06;;;;;;;9.73;2.80;;;;;;;;;;4993168;28;20026;-57
2024/01/15 12:21:31;;;;;;;8.40;3.10;;;;;;;;;;4981511;28;20490;-56
2024/01/15 12:23:56;;;;;;;8.38;2.70;;;;;;;;;;4992924;28;20102;-56
2024/01/15 12:26:22;;;;;;;9.32;2.78;;;;;;;;;;4993224;28;20026;-57
2024/01/15 12:28:49;;;;;;;9.68;2.53;;;;;;;;;;4989767;28;20056;-57
2024/01/15 12:31:14;;;;;;;9.82;2.60;;;;;;;;;;4993161;28;20027;-57
2024/01/15 12:33:40;;;;;;;9.50;3.07;;;;;;;;;;4990675;28;20475;-57
2024/01/15 12:36:05;;;;;;;12.45;3.03;;;;;;;;;;4985152;28;20018;-56
2024/01/15 12:38:30;;;;;;;9.00;2.85;;;;;;;;;;4993017;28;20018;-56
2024/01/15 12:40:55;;;;;;;12.15;3.58;;;;;;;;;;4993151;28;20058;-55
2024/01/15 12:43:20;;;;;;;9.25;2.83;;;;;;;;;;4988406;28;20030;-57
2024/01/15 12:45:46;;;;;;;9.30;3.22;;;;;;;;;;4993028;28;20426;-58
2024/01/15 12:48:13;;;;;;;7.78;2.40;;;;;;;;;;4987178;28;20040;-56
2024/01/15 12:50:38;;;;;;;9.82;2.88;;;;;;;;;;4991678;28;20030;-57
2024/01/15 12:53:03;;;;;;;8.43;2.78;;;;;;;;;;4992151;28;20097;-56
2024/01/15 12:55:28;;;;;;;6.77;2.57;;;;;;;;;;4992719;28;20046;-56
2024/01/15 12:57:54;;;;;;;7.28;2.80;;;;;;;;;;4992716;28;20023;-56
2024/01/15 13:00:20;;;;;;;7.60;3.08;;;;;;;;;;4992235;28;20413;-58
2024/01/15 13:02:45;;;;;;;7.50;2.58;;;;;;;;;;4990566;28;20030;-57
2024/01/15 13:05:11;;;;;;;8.90;2.80;;;;;;;;;;4992806;28;20078;-57
2024/01/15 13:07:36;;;;;;;10.02;3.22;;;;;;;;;;4991861;28;20022;-58
2024/01/15 13:10:01;;;;;;;10.23;2.83;;;;;;;;;;4992506;28;20038;-56
2024/01/15 13:12:26;;;;;;;8.13;3.20;;;;;;;;;;4992219;28;20100;-57
2024/01/15 13:14:51;;;;;;;10.85;2.83;;;;;;;;;;4992713;28;20491;-57
2024/01/15 13:17:17;;;;;;;8.73;2.93;;;;;;;;;;4991352;28;20033;-56
2024/01/15 13:19:42;;;;;;;7.50;2.70;;;;;;;;;;4991592;28;20030;-57
2024/01/15 13:22:09;;;;;;;7.35;3.03;;;;;;;;;;4992972;28;20475;-58
2024/01/15 13:24:34;;;;;;;8.68;2.80;;;;;;;;;;4992492;28;20106;-57
2024/01/15 13:27:00;;;;;;;8.80;3.03;;;;;;;;;;4992887;28;20050;-60
2024/01/15 13:29:25;;;;;;;9.70;3.33;;;;;;;;;;4992072;28;20022;-56
2024/01/15 13:31:50;;;;;;;7.95;2.95;;;;;;;;;;4991325;28;20034;-56
2024/01/15 13:34:15;;;;;;;9.70;3.20;;;;;;;;;;4991693;28;20561;-57
2024/01/15 13:36:40;;;;;;;9.30;3.20;;;;;;;;;;4978801;28;20023;-56
2024/01/15 13:39:08;;;;;;;8.50;2.65;;;;;;;;;;4972826;28;20051;-57
2024/01/15 13:41:33;;;;;;;10.00;3.40;;;;;;;;;;4985415;28;20023;-58
2024/01/15 13:43:59;;;;;;;8.10;2.90;;;;;;;;;;4991646;28;20019;-55
2024/01/15 13:46:28;;;;;;;10.20;2.90;;;;;;;;;;4990961;28;20022;-57
2024/01/15 13:48:53;;;;;;;11.98;3.08;;;;;;;;;;4993850;28;20081;-56
2024/01/15 13:51:18;;;;;;;8.18;3.00;;;;;;;;;;4992477;28;20018;-59
2024/01/15 13:53:44;;;;;;;9.90;3.27;;;;;;;;;;4992230;28;20066;-56
2024/01/15 13:56:10;;;;;;;9.05;3.08;;;;;;;;;;4996368;28;20465;-56
2024/01/15 13:58:35;;;;;;;8.27;3.30;;;;;;;;;;4999157;28;20442;-58
2024/01/15 14:01:02;;;;;;;8.82;2.92;;;;;;;;;;4996667;28;20042;-57
2024/01/15 14:03:28;;;;;;;9.68;3.33;;;;;;;;;;4998320;28;20101;-56
2024/01/15 14:05:53;;;;;;;12.13;3.72;;;;;;;;;;4998369;28;20057;-57
2024/01/15 14:08:18;;;;;;;9.10;3.40;;;;;;;;;;4998102;28;20034;-58
2024/01/15 14:10:43;;;;;;;17.63;4.28;;;;;;;;;;4998103;28;20026;-58
2024/01/15 14:13:08;;;;;;;8.80;3.20;;;;;;;;;;4996932;28;20026;-56
2024/01/15 14:15:34;;;;;;;10.40;3.33;;;;;;;;;;4998242;28;20029;-57
2024/01/15 14:18:00;;;;;;;9.43;3.45;;;;;;;;;;4998617;28;20518;-59
2024/01/15 14:20:25;;;;;;;11.38;3.25;;;;;;;;;;4998507;28;20112;-57
2024/01/15 14:22:51;;;;;;;9.17;3.10;;;;;;;;;;4998742;28;20050;-57
2024/01/15 14:25:16;;;;;;;9.15;3.40;;;;;;;;;;5002728;28;20371;-58